Aérodrome :
LOGIN :

S'inscrire | Disclaimer

   EN    FR    IT 

 










Légende :    VFR   VFR Marginal   IFR   IFR Intensif   IFR Très Intensif
Visi : 
Plafond : 
>= 8 km
>= 3000ft
5 à 8 km
1000 à 3000 ft
1500m à 5 km
500 à 1000 ft
800 à 1500m
200 à 500 ft
< 800m
< 200 ft
Symboles :   Orages  Brouillard  Fortes neiges  Fortes précipitations  Vent > 20 kt
SIGMETs :   Divers  Orages  Givrage  Turbulence  Onde Orograph.  Cendres Volcan.






- Altitude de l'aérodrome : 147 ft
- Code IATA : DUS


EDDL - Düsseldorf Int.

DERNIER METAR :
  • 301920Z AUTO 29009KT 260V330 9999 -SHRA BKN013 BKN037 SCT///TCU 15/13 Q1013 RESHRA TEMPO SHRA

METARs EXPIRÉS :
  • 301850Z AUTO 28014KT 250V310 9999 SHRA BKN015 BKN034 FEW///TCU 15/13 Q1013 TEMPO 27015G25KT TSRA BKN014CB
  • 301820Z AUTO 26017KT 9999 VCTS VCSH BKN014 FEW///CB 16/14 Q1012 RETSRA TEMPO 27020G35KT 4500 TSRA BKN013CB
  • 301750Z AUTO 28019G29KT 9999 -SHRA VCTS FEW011 FEW///CB 16/15 Q1010 RETSRA TEMPO 28013KT
  • 301720Z AUTO 27024KT 240V300 6000 TSRA FEW008 BKN///CB 17/16 Q1010 TEMPO 27012KT 9999 NSW
  • 301650Z AUTO 26011G23KT 220V290 8000 +TSGRRA FEW016 BKN///CB 19/18 Q1008 TEMPO 28013KT NSW

TAF AMD TAF EDDL
Valide du 30 à 18h jusqu'au 02 à 00h UTC


301819Z 3018/0124 29010KT 9999 SCT025
PROB40
TEMPO 3018/3024 25015G30KT TSRA BKN030CB
PROB30
TEMPO 3018/3021 25025G45KT 3000 +TSRA BKN014CB
TEMPO 3021/0106 BKN012
PROB30
TEMPO 0100/0105 RA
PROB30
TEMPO 0113/0116 26015G25KT
BECMG 0119/0120 VRB03KT



MET'MAP, la Météo Aéronautique d'un coup d'oeil ! - Copyright ORBIFLY Décembre 2007 - Disclaimer

ORBIFLY MET'MAP TEAM :

Programmation & Développement : Alexandra Zaïnal
Sur une idée originale de : Baudouin d'Aumeries
Soutien technique & logistique : Manuel Goepfert
Assistance : Marc-Olivier Méhu




SOURCES & CREDITS :

   NOAA